Time;durP1;ratioP1;P1;durP2;ratioP2;P2;SDS_P1;SDS_P2;PMS_P1;PMS_P2;Temp;Humidity;BMP_temperature;BMP_pressure;BME280_temperature;BME280_humidity;BME280_pressure;Samples;Min_cycle;Max_cycle;Signal;HPM_P1;HPM_P2
2023/01/03 00:01:55;;;;;;;;;;;;;;;17.36;48.69;102050.81;7256337;19;154460;-58
2023/01/03 00:04:22;;;;;;;;;;;;;;;17.38;48.79;102048.59;7255100;19;154218;-58
2023/01/03 00:06:50;;;;;;;;;;;;;;;17.39;48.93;102039.13;7253035;19;154130;-58
2023/01/03 00:09:18;;;;;;;;;;;;;;;17.42;48.82;102037.75;7253968;19;154078;-58
2023/01/03 00:14:25;;;;;;;;;;;;;;;17.44;48.48;102018.78;7253030;19;152622;-58
2023/01/03 00:16:55;;;;;;;;;;;;;;;17.45;48.30;102026.03;7254091;19;154059;-58
2023/01/03 00:19:22;;;;;;;;;;;;;;;17.45;48.21;102014.88;7261499;19;155093;-58
2023/01/03 00:21:50;;;;;;;;;;;;;;;17.44;48.68;102019.63;7251281;19;154523;-58
2023/01/03 00:24:17;;;;;;;;;;;;;;;17.44;48.32;102010.41;7253849;19;154805;-58
2023/01/03 00:26:44;;;;;;;;;;;;;;;17.42;48.37;102016.25;7254838;19;152252;-58
2023/01/03 00:29:11;;;;;;;;;;;;;;;17.41;48.41;102005.31;7254495;19;154321;-58
2023/01/03 00:31:38;;;;;;;;;;;;;;;17.40;48.70;102015.66;7255686;19;156141;-58
2023/01/03 00:34:05;;;;;;;;;;;;;;;17.39;48.43;102018.72;7254689;19;153935;-58
2023/01/03 00:36:33;;;;;;;;;;;;;;;17.39;48.59;102021.50;7251199;19;154357;-58
2023/01/03 00:39:00;;;;;;;;;;;;;;;17.39;48.69;102027.09;7252727;19;154580;-58
2023/01/03 00:41:27;;;;;;;;;;;;;;;17.36;48.44;102022.88;7262849;19;154379;-58
2023/01/03 00:43:53;;;;;;;;;;;;;;;17.35;48.57;102019.22;7253187;19;154163;-58
2023/01/03 00:46:20;;;;;;;;;;;;;;;17.36;48.94;102014.47;7253838;19;153574;-58
2023/01/03 00:48:48;;;;;;;;;;;;;;;17.35;49.13;102007.25;7252991;19;154997;-58
2023/01/03 00:51:16;;;;;;;;;;;;;;;17.35;48.68;102002.47;7250276;19;154599;-58
2023/01/03 00:53:45;;;;;;;;;;;;;;;17.34;49.11;102003.59;7250426;19;153491;-58
2023/01/03 00:56:13;;;;;;;;;;;;;;;17.34;48.64;102000.81;7252709;19;153694;-58
2023/01/03 00:58:40;;;;;;;;;;;;;;;17.33;48.85;101996.31;7251099;19;154865;-58
2023/01/03 01:01:09;;;;;;;;;;;;;;;17.32;48.70;101988.19;7261737;19;153557;-58
2023/01/03 01:03:36;;;;;;;;;;;;;;;17.31;48.62;101987.34;7253045;19;154000;-58
2023/01/03 01:06:13;;;;;;;;;;;;;;;17.31;48.79;101992.06;7251211;19;153166;-58
2023/01/03 01:08:40;;;;;;;;;;;;;;;17.30;48.83;101988.47;7251461;19;153283;-58
2023/01/03 01:11:07;;;;;;;;;;;;;;;17.29;48.92;101992.34;7251696;19;154820;-59
2023/01/03 01:13:34;;;;;;;;;;;;;;;17.29;48.78;101994.31;7253286;19;152160;-58
2023/01/03 01:16:06;;;;;;;;;;;;;;;17.28;49.00;101992.59;7253262;19;154677;-58
2023/01/03 01:18:33;;;;;;;;;;;;;;;17.27;48.99;101990.91;7252416;19;154407;-59
2023/01/03 01:21:05;;;;;;;;;;;;;;;17.27;48.90;101993.72;7249112;19;153457;-58
2023/01/03 01:23:33;;;;;;;;;;;;;;;17.25;49.07;102005.16;7258088;19;154318;-58
2023/01/03 01:26:01;;;;;;;;;;;;;;;17.24;49.03;101997.88;7253380;19;153396;-58
2023/01/03 01:28:28;;;;;;;;;;;;;;;17.23;48.88;101998.13;7250511;19;155507;-58
2023/01/03 01:30:57;;;;;;;;;;;;;;;17.22;48.91;101991.69;7250611;19;154966;-58
2023/01/03 01:33:24;;;;;;;;;;;;;;;17.21;48.83;101989.19;7251523;19;153759;-58
2023/01/03 01:35:51;;;;;;;;;;;;;;;17.19;49.23;101989.44;7248237;19;154226;-58
2023/01/03 01:38:19;;;;;;;;;;;;;;;17.18;48.85;101984.94;7248799;19;153895;-58
2023/01/03 01:40:46;;;;;;;;;;;;;;;17.17;49.22;101980.47;7250606;19;153484;-58
2023/01/03 01:45:51;;;;;;;;;;;;;;;17.15;49.22;101976.25;7259622;19;153629;-58
2023/01/03 01:48:18;;;;;;;;;;;;;;;17.13;49.05;101979.28;7252674;19;154169;-58
2023/01/03 01:50:48;;;;;;;;;;;;;;;17.12;49.10;101977.63;7249876;19;153074;-58
2023/01/03 01:53:20;;;;;;;;;;;;;;;17.11;49.21;101970.34;7251840;19;154676;-58
2023/01/03 01:55:52;;;;;;;;;;;;;;;17.11;49.09;101961.13;7252193;19;153611;-57
2023/01/03 01:58:20;;;;;;;;;;;;;;;17.09;49.30;101966.97;7249252;19;154344;-58
2023/01/03 02:00:47;;;;;;;;;;;;;;;17.08;49.07;101962.47;7251597;19;153437;-58
2023/01/03 02:03:14;;;;;;;;;;;;;;;17.08;48.92;101965.28;7252895;19;153260;-58
2023/01/03 02:05:45;;;;;;;;;;;;;;;17.06;49.01;101975.03;7250350;19;154625;-57
2023/01/03 02:08:12;;;;;;;;;;;;;;;17.05;49.32;101976.13;7259274;19;154205;-58
2023/01/03 02:10:49;;;;;;;;;;;;;;;17.03;49.33;101978.34;7248743;19;154506;-58
2023/01/03 02:13:19;;;;;;;;;;;;;;;17.01;49.18;101978.59;7252722;19;153902;-57
2023/01/03 02:15:47;;;;;;;;;;;;;;;17.00;49.22;101971.31;7250691;19;154418;-58
2023/01/03 02:18:16;;;;;;;;;;;;;;;16.99;49.17;101964.03;7251466;19;155884;-58
2023/01/03 02:20:43;;;;;;;;;;;;;;;16.98;49.21;101964.31;7247693;19;153745;-58
2023/01/03 02:23:20;;;;;;;;;;;;;;;16.97;49.30;101973.78;7249744;19;154056;-57
2023/01/03 02:25:56;;;;;;;;;;;;;;;16.96;49.47;101975.72;7251281;19;153114;-58
2023/01/03 02:28:26;;;;;;;;;;;;;;;16.96;49.22;101977.69;7251190;19;153400;-57
2023/01/03 02:30:56;;;;;;;;;;;;;;;16.94;49.42;101972.38;7257731;19;153265;-57
2023/01/03 02:33:30;;;;;;;;;;;;;;;16.93;49.39;101969.84;7249671;19;154196;-58
2023/01/03 02:35:57;;;;;;;;;;;;;;;16.93;49.20;101969.84;7243927;19;154150;-58
2023/01/03 02:38:33;;;;;;;;;;;;;;;16.92;49.03;101971.78;7249315;19;156091;-58
2023/01/03 02:41:07;;;;;;;;;;;;;;;16.90;49.39;101968.38;7250546;19;152349;-58
2023/01/03 02:43:45;;;;;;;;;;;;;;;16.89;49.38;101963.94;7250908;19;152703;-58
2023/01/03 02:46:12;;;;;;;;;;;;;;;16.87;49.54;101968.91;7250030;19;154045;-57
2023/01/03 02:48:39;;;;;;;;;;;;;;;16.87;49.13;101963.34;7250766;19;152806;-57
2023/01/03 02:51:12;;;;;;;;;;;;;;;16.86;49.42;101961.63;7248786;19;154838;-57
2023/01/03 02:53:42;;;;;;;;;;;;;;;16.85;49.15;101958.00;7256134;19;153501;-58
2023/01/03 02:56:11;;;;;;;;;;;;;;;16.83;49.50;101956.59;7246007;19;153941;-57
2023/01/03 02:58:39;;;;;;;;;;;;;;;16.82;49.52;101961.31;7252286;19;154097;-57
2023/01/03 03:01:07;;;;;;;;;;;;;;;16.80;49.52;101955.16;7252743;19;153241;-57
2023/01/03 03:03:36;;;;;;;;;;;;;;;16.79;49.33;101956.25;7250902;19;153849;-57
2023/01/03 03:06:13;;;;;;;;;;;;;;;16.79;49.57;101956.25;7248852;19;153896;-57
2023/01/03 03:08:42;;;;;;;;;;;;;;;16.78;49.46;101945.34;7249454;19;153457;-57
2023/01/03 03:13:47;;;;;;;;;;;;;;;16.75;49.80;101948.66;7257367;19;154978;-57
2023/01/03 03:16:16;;;;;;;;;;;;;;;16.73;49.50;101943.34;7248028;19;153488;-57
2023/01/03 03:18:52;;;;;;;;;;;;;;;16.73;49.84;101945.28;7249091;19;153928;-57
2023/01/03 03:26:38;;;;;;;;;;;;;;;16.69;49.78;101924.56;7246766;19;156144;-57
2023/01/03 03:29:10;;;;;;;;;;;;;;;16.67;49.73;101924.00;7249607;19;153352;-57
2023/01/03 03:31:39;;;;;;;;;;;;;;;16.65;49.82;101921.47;7247386;19;153043;-57
2023/01/03 03:34:10;;;;;;;;;;;;;;;16.64;50.03;101914.19;7248051;19;154293;-57
2023/01/03 03:36:37;;;;;;;;;;;;;;;16.64;49.71;101914.19;7252179;19;154045;-57
2023/01/03 03:39:05;;;;;;;;;;;;;;;16.62;49.84;101913.63;7247513;19;154174;-57
2023/01/03 03:46:54;;;;;;;;;;;;;;;16.60;49.82;101917.75;7247901;19;155167;-57
2023/01/03 03:52:00;;;;;;;;;;;;;;;16.58;50.29;101919.97;7245395;19;154166;-57
2023/01/03 03:54:28;;;;;;;;;;;;;;;16.57;50.11;101913.53;7246350;19;154125;-57
2023/01/03 03:56:59;;;;;;;;;;;;;;;16.56;50.37;101919.34;7245910;19;153211;-57
2023/01/03 03:59:27;;;;;;;;;;;;;;;16.54;50.33;101914.00;7253410;19;153861;-57
2023/01/03 04:01:55;;;;;;;;;;;;;;;16.52;50.41;101910.66;7249387;19;154996;-57
2023/01/03 04:04:26;;;;;;;;;;;;;;;16.52;50.57;101920.97;7245780;19;155192;-57
2023/01/03 04:06:53;;;;;;;;;;;;;;;16.51;50.50;101913.69;7243456;19;154979;-57
2023/01/03 04:09:20;;;;;;;;;;;;;;;16.50;50.70;101915.63;7246633;19;153200;-57
2023/01/03 04:11:47;;;;;;;;;;;;;;;16.50;50.72;101912.00;7245229;19;153112;-57
2023/01/03 04:14:14;;;;;;;;;;;;;;;16.48;50.44;101906.69;7249095;19;154523;-57
2023/01/03 04:16:41;;;;;;;;;;;;;;;16.47;50.56;101905.00;7245247;19;153342;-57
2023/01/03 04:19:08;;;;;;;;;;;;;;;16.45;50.77;101902.47;7248393;19;153980;-57
2023/01/03 04:21:35;;;;;;;;;;;;;;;16.44;50.63;101906.34;7257879;19;155362;-57
2023/01/03 04:24:03;;;;;;;;;;;;;;;16.44;50.77;101902.75;7255524;19;152709;-58
2023/01/03 04:26:30;;;;;;;;;;;;;;;16.42;50.78;101903.00;7254487;19;154997;-57
2023/01/03 04:28:57;;;;;;;;;;;;;;;16.42;50.90;101903.00;7251703;19;153900;-57
2023/01/03 04:31:23;;;;;;;;;;;;;;;16.41;50.57;101909.66;7252366;19;153682;-57
2023/01/03 04:33:52;;;;;;;;;;;;;;;16.40;50.90;101907.97;7253745;19;156188;-57
2023/01/03 04:36:20;;;;;;;;;;;;;;;16.37;50.65;101897.34;7249243;19;153872;-57
2023/01/03 04:38:47;;;;;;;;;;;;;;;16.37;50.86;101902.91;7250838;19;154350;-57
2023/01/03 04:41:14;;;;;;;;;;;;;;;16.37;50.82;101902.91;7250046;19;153722;-57
2023/01/03 04:46:18;;;;;;;;;;;;;;;16.40;50.79;101907.97;7254094;19;153471;-57
2023/01/03 04:48:45;;;;;;;;;;;;;;;16.41;51.01;101906.88;7255075;19;154303;-57
2023/01/03 04:51:12;;;;;;;;;;;;;;;16.43;50.90;101901.03;7251371;19;152572;-57
2023/01/03 04:53:39;;;;;;;;;;;;;;;16.43;51.01;101907.47;7252754;19;153840;-57
2023/01/03 04:56:06;;;;;;;;;;;;;;;16.50;51.44;101912.00;7250919;19;154279;-57
2023/01/03 04:58:33;;;;;;;;;;;;;;;16.54;51.12;101902.00;7254618;19;153853;-57
2023/01/03 05:01:00;;;;;;;;;;;;;;;16.60;51.56;101901.03;7252012;19;154394;-57
2023/01/03 05:03:28;;;;;;;;;;;;;;;16.66;51.58;101895.25;7255113;19;153749;-57
2023/01/03 05:05:59;;;;;;;;;;;;;;;16.70;51.37;101896.44;7258738;19;152802;-57
2023/01/03 05:08:25;;;;;;;;;;;;;;;16.76;51.58;101900.13;7252853;19;153785;-57
2023/01/03 05:10:52;;;;;;;;;;;;;;;16.80;51.53;101888.19;7253186;19;154029;-57
2023/01/03 05:13:19;;;;;;;;;;;;;;;16.84;51.03;101891.28;7253149;19;154099;-57
2023/01/03 05:15:46;;;;;;;;;;;;;;;16.87;51.08;101891.63;7250681;19;153377;-57
2023/01/03 05:18:13;;;;;;;;;;;;;;;16.91;51.20;101886.34;7251681;19;154712;-57
2023/01/03 05:25:53;;;;;;;;;;;;;;;17.02;51.05;101890.09;7259682;19;155183;-57
2023/01/03 05:28:21;;;;;;;;;;;;;;;17.02;50.86;101885.38;7254305;19;152573;-57
2023/01/03 05:30:48;;;;;;;;;;;;;;;17.06;50.73;101889.31;7250126;19;153622;-56
2023/01/03 05:33:15;;;;;;;;;;;;;;;17.08;50.74;101886.28;7244896;19;153458;-57
2023/01/03 05:35:45;;;;;;;;;;;;;;;17.09;50.96;101879.56;7250391;19;154676;-57
2023/01/03 05:38:12;;;;;;;;;;;;;;;17.13;50.97;101883.50;7252438;19;153538;-56
2023/01/03 05:40:40;;;;;;;;;;;;;;;17.13;50.59;101881.56;7251421;19;154851;-57
2023/01/03 05:43:07;;;;;;;;;;;;;;;17.15;50.58;101889.69;7254617;19;154428;-57
2023/01/03 05:45:35;;;;;;;;;;;;;;;17.16;50.71;101900.63;7252012;19;153944;-57
2023/01/03 05:48:02;;;;;;;;;;;;;;;17.18;50.83;101894.75;7259531;19;153474;-57
2023/01/03 05:50:29;;;;;;;;;;;;;;;17.18;50.43;101897.53;7249734;19;154397;-57
2023/01/03 05:52:56;;;;;;;;;;;;;;;17.19;50.50;101896.44;7250594;19;154656;-57
2023/01/03 05:55:23;;;;;;;;;;;;;;;17.19;50.43;101894.50;7250643;19;153836;-56
2023/01/03 05:57:50;;;;;;;;;;;;;;;17.20;50.66;101889.75;7253600;19;154329;-59
2023/01/03 06:00:18;;;;;;;;;;;;;;;17.19;50.60;101893.63;7251323;19;154047;-57
2023/01/03 06:02:45;;;;;;;;;;;;;;;17.19;50.59;101882.47;7251443;19;152089;-57
2023/01/03 06:05:12;;;;;;;;;;;;;;;17.18;50.50;101890.00;7249952;19;155521;-57
2023/01/03 06:07:39;;;;;;;;;;;;;;;17.18;50.84;101890.00;7249922;19;155372;-59
2023/01/03 06:10:06;;;;;;;;;;;;;;;17.18;50.83;101880.78;7257156;19;153952;-57
2023/01/03 06:12:33;;;;;;;;;;;;;;;17.18;50.59;101886.38;7250904;19;154237;-57
2023/01/03 06:15:00;;;;;;;;;;;;;;;17.18;50.56;101886.38;7253175;19;154689;-57
2023/01/03 06:20:03;;;;;;;;;;;;;;;17.17;50.69;101882.72;7250717;19;153713;-57
2023/01/03 06:22:30;;;;;;;;;;;;;;;17.17;50.77;101871.56;7247185;19;154617;-57
2023/01/03 06:24:57;;;;;;;;;;;;;;;17.18;50.51;101875.19;7248431;19;154399;-56
2023/01/03 06:27:23;;;;;;;;;;;;;;;17.18;50.55;101878.00;7250206;19;153416;-57
2023/01/03 06:29:50;;;;;;;;;;;;;;;17.18;50.52;101878.00;7249535;19;153780;-57
2023/01/03 06:32:17;;;;;;;;;;;;;;;17.19;50.63;101885.25;7259161;19;155719;-57
2023/01/03 06:34:44;;;;;;;;;;;;;;;17.17;50.75;101885.53;7251912;19;154325;-57
2023/01/03 06:37:11;;;;;;;;;;;;;;;17.17;50.49;101885.53;7243614;19;153316;-57
2023/01/03 06:39:38;;;;;;;;;;;;;;;17.17;50.41;101890.28;7248358;19;153311;-57
2023/01/03 06:44:41;;;;;;;;;;;;;;;17.16;50.47;101883.84;7249144;19;154006;-57
2023/01/03 06:54:57;;;;;;;;;;;;;;;17.14;50.61;101874.88;7255895;19;153656;-57
2023/01/03 06:57:24;;;;;;;;;;;;;;;17.15;50.59;101881.31;7249924;19;154258;-57
2023/01/03 06:59:53;;;;;;;;;;;;;;;17.14;50.80;101874.03;7249945;19;154707;-57
2023/01/03 07:02:20;;;;;;;;;;;;;;;17.12;50.71;101871.53;7250899;19;153075;-57
2023/01/03 07:04:47;;;;;;;;;;;;;;;17.11;50.73;101869.84;7250240;19;153449;-57
2023/01/03 07:07:14;;;;;;;;;;;;;;;17.11;50.78;101864.25;7244021;19;153686;-57
2023/01/03 07:09:41;;;;;;;;;;;;;;;17.12;50.80;101881.84;7250026;19;152877;-57
2023/01/03 07:14:44;;;;;;;;;;;;;;;17.09;50.48;101871.19;7249749;19;153892;-57
2023/01/03 07:17:15;;;;;;;;;;;;;;;17.09;50.82;101872.03;7255906;19;153057;-57
2023/01/03 07:19:42;;;;;;;;;;;;;;;17.08;50.50;101872.31;7250316;19;152926;-57
2023/01/03 07:22:08;;;;;;;;;;;;;;;17.07;50.66;101874.25;7250398;19;154235;-57
2023/01/03 07:24:35;;;;;;;;;;;;;;;17.06;50.63;101880.94;7250813;19;155119;-57
2023/01/03 07:27:02;;;;;;;;;;;;;;;17.06;50.84;101871.72;7251936;19;154369;-57
2023/01/03 07:29:29;;;;;;;;;;;;;;;17.05;50.64;101867.25;7250772;19;153890;-57
2023/01/03 07:31:57;;;;;;;;;;;;;;;17.05;50.67;101864.44;7249873;19;153909;-57
2023/01/03 07:34:24;;;;;;;;;;;;;;;17.04;50.69;101863.59;7247740;19;153392;-56
2023/01/03 07:36:51;;;;;;;;;;;;;;;17.02;50.40;101864.97;7253620;19;153674;-56
2023/01/03 07:39:18;;;;;;;;;;;;;;;17.02;50.66;101856.59;7248623;19;155685;-56
2023/01/03 07:44:22;;;;;;;;;;;;;;;17.02;50.70;101862.19;7249889;19;154223;-57
2023/01/03 07:46:49;;;;;;;;;;;;;;;17.02;51.01;101857.47;7247974;19;154448;-57
2023/01/03 07:49:16;;;;;;;;;;;;;;;17.04;50.70;101854.38;7250192;19;153629;-57
2023/01/03 07:51:43;;;;;;;;;;;;;;;17.06;51.03;101854.97;7245685;19;153494;-57
2023/01/03 07:54:09;;;;;;;;;;;;;;;17.11;51.38;101866.19;7248483;19;153442;-56
2023/01/03 07:56:37;;;;;;;;;;;;;;;17.16;51.14;101867.09;7251927;19;154199;-57
2023/01/03 07:59:03;;;;;;;;;;;;;;;17.22;51.42;101860.44;7264683;19;152838;-57
2023/01/03 08:01:32;;;;;;;;;;;;;;;17.27;51.21;101863.28;7256175;19;154915;-56
2023/01/03 08:03:59;;;;;;;;;;;;;;;17.32;51.14;101866.13;7254791;19;154527;-56
2023/01/03 08:06:26;;;;;;;;;;;;;;;17.38;51.27;101857.81;7252453;19;153548;-57
2023/01/03 08:14:09;;;;;;;;;;;;;;;17.49;50.91;101854.00;7252391;19;154207;-57
2023/01/03 08:16:37;;;;;;;;;;;;;;;17.52;51.25;101857.13;7255062;19;152675;-57
2023/01/03 08:19:04;;;;;;;;;;;;;;;17.54;51.15;101848.44;7254670;19;152596;-57
2023/01/03 08:21:31;;;;;;;;;;;;;;;17.57;50.74;101856.31;7257692;19;154430;-57
2023/01/03 08:24:01;;;;;;;;;;;;;;;17.59;50.76;101854.97;7256309;19;153460;-57
2023/01/03 08:26:28;;;;;;;;;;;;;;;17.61;50.89;101851.91;7252601;19;155246;-57
2023/01/03 08:28:54;;;;;;;;;;;;;;;17.63;50.94;101850.50;7252468;19;152615;-57
2023/01/03 08:31:22;;;;;;;;;;;;;;;17.63;50.75;101847.72;7254450;19;154784;-56
2023/01/03 08:33:54;;;;;;;;;;;;;;;17.66;50.90;101850.00;7256212;19;153442;-57
2023/01/03 08:36:22;;;;;;;;;;;;;;;17.67;50.54;101845.25;7250897;19;153457;-57
2023/01/03 08:38:53;;;;;;;;;;;;;;;17.69;50.76;101852.25;7257407;19;154947;-57
2023/01/03 08:41:22;;;;;;;;;;;;;;;17.69;50.71;101854.19;7253924;19;153170;-56
2023/01/03 08:43:49;;;;;;;;;;;;;;;17.71;50.66;101860.38;7262896;19;153490;-57
2023/01/03 08:46:16;;;;;;;;;;;;;;;17.71;50.62;101855.63;7252329;19;155459;-57
2023/01/03 08:48:44;;;;;;;;;;;;;;;17.71;50.61;101863.19;7252465;19;153042;-59
2023/01/03 08:51:10;;;;;;;;;;;;;;;17.70;50.78;101851.16;7251627;19;152987;-59
2023/01/03 08:53:37;;;;;;;;;;;;;;;17.70;50.46;101856.75;7251267;19;153784;-57
2023/01/03 08:56:05;;;;;;;;;;;;;;;17.71;50.92;101854.78;7255379;19;153699;-57
2023/01/03 08:58:32;;;;;;;;;;;;;;;17.71;50.67;101841.66;7250836;19;153520;-57
2023/01/03 09:01:00;;;;;;;;;;;;;;;17.71;50.85;101847.25;7252698;19;152674;-57
2023/01/03 09:03:27;;;;;;;;;;;;;;;17.71;50.86;101844.47;7251462;19;153305;-57
2023/01/03 09:05:58;;;;;;;;;;;;;;;17.69;50.51;101832.69;7257800;19;153574;-57
2023/01/03 09:08:25;;;;;;;;;;;;;;;17.69;50.60;101838.28;7252732;19;152035;-57
2023/01/03 09:10:53;;;;;;;;;;;;;;;17.69;50.54;101840.22;7250798;19;154236;-57
2023/01/03 09:13:20;;;;;;;;;;;;;;;17.67;50.73;101840.50;7255587;19;153398;-56
2023/01/03 09:15:47;;;;;;;;;;;;;;;17.67;50.61;101846.06;7255058;19;154108;-57
2023/01/03 09:18:14;;;;;;;;;;;;;;;17.67;50.69;101842.47;7254157;19;152935;-57
2023/01/03 09:20:41;;;;;;;;;;;;;;;17.65;50.82;101836.28;7253426;19;154518;-57
2023/01/03 09:23:08;;;;;;;;;;;;;;;17.65;50.54;101848.31;7254434;19;152875;-57
2023/01/03 09:25:35;;;;;;;;;;;;;;;17.64;50.79;101841.03;7251121;19;152831;-57
2023/01/03 09:28:03;;;;;;;;;;;;;;;17.64;50.82;101835.44;7261037;19;152750;-56
2023/01/03 09:30:31;;;;;;;;;;;;;;;17.64;50.88;101840.19;7253825;19;154241;-57
2023/01/03 09:32:58;;;;;;;;;;;;;;;17.63;50.67;101835.69;7253127;19;155069;-57
2023/01/03 09:35:25;;;;;;;;;;;;;;;17.61;50.64;101830.41;7252382;19;152286;-57
2023/01/03 09:37:52;;;;;;;;;;;;;;;17.62;50.61;101845.22;7250822;19;154942;-57
2023/01/03 09:40:19;;;;;;;;;;;;;;;17.61;50.70;101835.13;7252978;19;154327;-56
2023/01/03 09:45:26;;;;;;;;;;;;;;;17.60;50.96;101837.09;7253709;19;153562;-57
2023/01/03 09:47:53;;;;;;;;;;;;;;;17.59;51.05;101831.75;7256496;19;153915;-57
2023/01/03 09:50:22;;;;;;;;;;;;;;;17.58;50.89;101832.84;7248999;19;153946;-56
2023/01/03 10:04:05;;;;;;;;;;;;;;;17.53;50.73;101828.06;7256489;19;154473;-57
2023/01/03 10:06:42;;;;;;;;;;;;;;;17.53;50.85;101816.06;7248765;19;153475;-57
2023/01/03 10:09:19;;;;;;;;;;;;;;;17.51;51.01;101826.63;7252157;19;154075;-57
2023/01/03 10:11:55;;;;;;;;;;;;;;;17.50;51.20;101816.56;7258262;19;153198;-56
2023/01/03 10:14:31;;;;;;;;;;;;;;;17.49;51.32;101824.09;7251071;19;154583;-57
2023/01/03 10:17:04;;;;;;;;;;;;;;;17.46;51.30;101819.06;7250514;19;153765;-57
2023/01/03 10:19:32;;;;;;;;;;;;;;;17.46;51.32;101824.63;7248693;19;152986;-57
2023/01/03 10:22:09;;;;;;;;;;;;;;;17.44;51.37;101817.66;7246880;19;155213;-57
2023/01/03 10:24:42;;;;;;;;;;;;;;;17.43;51.28;101821.53;7251737;19;153721;-57
2023/01/03 10:27:14;;;;;;;;;;;;;;;17.41;51.14;101824.59;7253674;19;154316;-57
2023/01/03 10:29:42;;;;;;;;;;;;;;;17.41;51.19;101812.56;7252956;19;154400;-57
2023/01/03 10:32:19;;;;;;;;;;;;;;;17.40;51.34;101808.13;7252224;19;152624;-57
2023/01/03 10:35:00;;;;;;;;;;;;;;;17.39;51.62;101809.22;7258780;19;153833;-57
2023/01/03 10:37:27;;;;;;;;;;;;;;;17.37;51.47;101805.84;7248106;19;154205;-57
2023/01/03 10:40:04;;;;;;;;;;;;;;;17.35;51.37;101804.16;7250360;19;153716;-57
2023/01/03 10:42:33;;;;;;;;;;;;;;;17.33;51.84;101803.59;7251662;19;154473;-57
2023/01/03 10:45:01;;;;;;;;;;;;;;;17.31;51.88;101800.19;7253716;19;153545;-57
2023/01/03 10:47:28;;;;;;;;;;;;;;;17.31;51.83;101805.78;7253427;19;153597;-57
2023/01/03 10:49:59;;;;;;;;;;;;;;;17.29;51.43;101802.44;7250632;19;154718;-57
2023/01/03 10:52:32;;;;;;;;;;;;;;;17.28;51.80;101800.75;7248020;19;152948;-57
2023/01/03 10:55:00;;;;;;;;;;;;;;;17.27;51.92;101793.47;7249929;19;153567;-57
2023/01/03 10:57:38;;;;;;;;;;;;;;;17.25;51.64;101784.53;7258663;19;154384;-57
2023/01/03 11:00:25;;;;;;;;;;;;;;;17.25;51.72;101786.47;7251085;19;153258;-57
2023/01/03 11:02:53;;;;;;;;;;;;;;;17.22;51.93;101784.19;7249767;19;154424;-57
2023/01/03 11:05:21;;;;;;;;;;;;;;;17.22;52.10;101787.84;7251075;19;154468;-57
2023/01/03 11:07:53;;;;;;;;;;;;;;;17.20;51.92;101778.06;7252177;19;153574;-57
2023/01/03 11:10:21;;;;;;;;;;;;;;;17.18;52.34;101771.88;7248899;19;155001;-57
2023/01/03 11:12:48;;;;;;;;;;;;;;;17.17;52.20;101762.66;7254826;19;153575;-57
2023/01/03 11:15:24;;;;;;;;;;;;;;;17.16;52.41;101761.00;7248886;19;153877;-57
2023/01/03 11:17:51;;;;;;;;;;;;;;;17.15;52.48;101748.13;7246686;19;153842;-57
2023/01/03 11:20:18;;;;;;;;;;;;;;;17.12;52.22;101754.25;7256217;19;154348;-58
2023/01/03 11:22:53;;;;;;;;;;;;;;;17.12;52.45;101747.84;7245488;19;154586;-57
2023/01/03 11:25:29;;;;;;;;;;;;;;;17.10;52.63;101750.03;7247410;19;154366;-57
2023/01/03 11:28:05;;;;;;;;;;;;;;;17.09;52.75;101738.03;7251432;19;152298;-57
2023/01/03 11:30:42;;;;;;;;;;;;;;;17.07;52.75;101723.50;7252102;19;154191;-57
2023/01/03 11:33:10;;;;;;;;;;;;;;;17.05;52.93;101736.88;7258344;19;154029;-57
2023/01/03 11:35:38;;;;;;;;;;;;;;;17.03;52.79;101735.47;7255993;19;154066;-57
2023/01/03 11:38:05;;;;;;;;;;;;;;;17.01;52.92;101720.91;7255609;19;154691;-57
2023/01/03 11:40:41;;;;;;;;;;;;;;;17.00;53.10;101720.06;7265867;19;153699;-57
2023/01/03 11:43:17;;;;;;;;;;;;;;;16.99;52.85;101718.38;7256445;19;154455;-57
2023/01/03 11:45:51;;;;;;;;;;;;;;;16.97;53.24;101706.66;7256893;19;153366;-57
2023/01/03 11:48:28;;;;;;;;;;;;;;;16.94;53.08;101701.63;7256760;19;153558;-57
2023/01/03 11:50:55;;;;;;;;;;;;;;;16.94;53.21;101696.03;7253487;19;153248;-57
2023/01/03 11:53:32;;;;;;;;;;;;;;;16.94;53.42;101689.59;7256253;19;153658;-57
2023/01/03 11:55:59;;;;;;;;;;;;;;;16.93;53.14;101685.97;7257151;19;153334;-57
2023/01/03 11:58:36;;;;;;;;;;;;;;;16.92;53.53;101691.81;7253969;19;154186;-57
2023/01/03 12:01:15;;;;;;;;;;;;;;;16.90;53.42;101669.75;7255433;19;152446;-57
2023/01/03 12:03:43;;;;;;;;;;;;;;;16.88;53.53;101677.56;7262287;19;154028;-56
2023/01/03 12:06:17;;;;;;;;;;;;;;;16.87;53.51;101664.69;7255598;19;153767;-57
2023/01/03 12:08:58;;;;;;;;;;;;;;;16.84;53.53;101668.88;7255543;19;153714;-57
2023/01/03 12:11:34;;;;;;;;;;;;;;;16.85;53.78;101656.59;7251855;19;152836;-57
2023/01/03 12:14:01;;;;;;;;;;;;;;;16.84;53.93;101663.28;7257023;19;153898;-57
2023/01/03 12:16:28;;;;;;;;;;;;;;;16.82;53.60;101661.84;7255472;19;154212;-59
2023/01/03 12:19:05;;;;;;;;;;;;;;;16.82;53.90;101650.69;7255190;19;155367;-57
2023/01/03 12:21:42;;;;;;;;;;;;;;;16.81;53.81;101654.59;7251269;19;153236;-57
2023/01/03 12:24:17;;;;;;;;;;;;;;;16.79;53.63;101649.28;7253746;19;155059;-57
2023/01/03 12:26:49;;;;;;;;;;;;;;;16.79;53.67;101640.06;7263514;19;154077;-57
2023/01/03 12:29:23;;;;;;;;;;;;;;;16.78;53.76;101646.75;7254466;19;153994;-57
2023/01/03 12:31:52;;;;;;;;;;;;;;;16.77;53.98;101647.88;7253540;19;157227;-58
2023/01/03 12:34:29;;;;;;;;;;;;;;;16.76;53.93;101626.66;7253731;19;153863;-58
2023/01/03 12:36:56;;;;;;;;;;;;;;;16.75;53.95;101637.00;7251788;19;154071;-58
2023/01/03 12:39:26;;;;;;;;;;;;;;;16.73;53.92;101624.38;7252873;19;153495;-58
2023/01/03 12:42:03;;;;;;;;;;;;;;;16.72;54.05;101628.28;7251984;19;153735;-58
2023/01/03 12:44:35;;;;;;;;;;;;;;;16.70;54.19;101616.56;7254527;19;154301;-58
2023/01/03 12:47:04;;;;;;;;;;;;;;;16.69;53.80;101617.66;7250871;19;154287;-58
2023/01/03 12:49:37;;;;;;;;;;;;;;;16.68;54.32;101613.19;7262650;19;153283;-58
2023/01/03 12:52:04;;;;;;;;;;;;;;;16.67;53.96;101603.16;7251744;19;153288;-58
2023/01/03 12:54:41;;;;;;;;;;;;;;;16.66;54.27;101607.91;7254832;19;153651;-58
2023/01/03 12:57:11;;;;;;;;;;;;;;;16.67;54.05;101611.53;7253786;19;153541;-58
2023/01/03 12:59:38;;;;;;;;;;;;;;;16.64;54.25;101612.88;7252803;19;153507;-58
2023/01/03 13:02:15;;;;;;;;;;;;;;;16.64;54.42;101606.47;7255423;19;153251;-58
2023/01/03 13:04:43;;;;;;;;;;;;;;;16.63;54.33;101599.19;7253785;19;154387;-58
2023/01/03 13:07:13;;;;;;;;;;;;;;;16.62;54.56;101603.97;7250407;19;153326;-58
2023/01/03 13:09:42;;;;;;;;;;;;;;;16.61;54.64;101585.53;7252470;19;153961;-58
2023/01/03 13:12:13;;;;;;;;;;;;;;;16.59;54.50;101587.72;7259653;19;154090;-58
2023/01/03 13:14:50;;;;;;;;;;;;;;;16.60;54.42;101596.94;7254470;19;153832;-58
2023/01/03 13:17:18;;;;;;;;;;;;;;;16.58;54.57;101590.81;7253716;19;154606;-58
2023/01/03 13:19:55;;;;;;;;;;;;;;;16.56;54.67;101588.25;7248424;19;155461;-58
2023/01/03 13:22:32;;;;;;;;;;;;;;;16.56;54.36;101596.59;7247835;19;152388;-58
2023/01/03 13:25:09;;;;;;;;;;;;;;;16.56;54.65;101598.56;7251777;19;153296;-58
2023/01/03 13:27:37;;;;;;;;;;;;;;;16.55;54.58;101580.13;7250802;19;154307;-58
2023/01/03 13:30:14;;;;;;;;;;;;;;;16.54;54.85;101573.69;7252654;19;153491;-58
2023/01/03 13:32:50;;;;;;;;;;;;;;;16.53;54.64;101569.25;7253283;19;153681;-58
2023/01/03 13:35:19;;;;;;;;;;;;;;;16.53;54.71;101580.41;7258141;19;155019;-58
2023/01/03 13:37:47;;;;;;;;;;;;;;;16.52;54.69;101564.78;7251381;19;154045;-58
2023/01/03 13:40:26;;;;;;;;;;;;;;;16.52;54.88;101561.16;7249608;19;156396;-58
2023/01/03 13:43:14;;;;;;;;;;;;;;;16.50;54.73;101550.25;7253143;19;153145;-58
2023/01/03 13:45:41;;;;;;;;;;;;;;;16.50;54.99;101547.47;7255743;19;154982;-58